createdAt,value
2022-12-14T00:00:36.079Z,101082.44
2022-12-14T00:03:07.777Z,101087.88
2022-12-14T00:05:39.239Z,101064.13
2022-12-14T00:08:10.779Z,101091.63
2022-12-14T00:10:43.529Z,101106.59
2022-12-14T00:13:17.052Z,101121.56
2022-12-14T00:15:48.411Z,101119.09
2022-12-14T00:18:22.556Z,101111.59
2022-12-14T00:20:54.145Z,101124.56
2022-12-14T00:23:25.437Z,101127.72
2022-12-14T00:25:56.776Z,101116.63
2022-12-14T00:28:28.679Z,101124.56
2022-12-14T00:31:00.966Z,101136.66
2022-12-14T00:33:33.030Z,101143.69
2022-12-14T00:36:06.079Z,101148.09
2022-12-14T00:38:37.904Z,101144.53
2022-12-14T00:41:11.147Z,101089.09
2022-12-14T00:43:42.486Z,101152.44
2022-12-14T00:46:13.987Z,101149.09
2022-12-14T00:48:45.778Z,101140.75
2022-12-14T00:51:17.228Z,101156.22
2022-12-14T00:53:49.017Z,101152.47
2022-12-14T00:56:20.582Z,101146.25
2022-12-14T00:58:55.738Z,101144.00
2022-12-14T01:01:27.439Z,101149.00
2022-12-14T01:04:18.013Z,101135.44
2022-12-14T01:06:52.507Z,101131.34
2022-12-14T01:09:25.499Z,101142.97
2022-12-14T01:11:56.864Z,101152.78
2022-12-14T01:14:28.377Z,101147.97
2022-12-14T01:16:59.790Z,101149.66
2022-12-14T01:19:32.025Z,101142.38
2022-12-14T01:22:03.325Z,101149.84
2022-12-14T01:24:34.923Z,101158.38
2022-12-14T01:27:06.432Z,101163.59
2022-12-14T01:29:38.465Z,101161.72
2022-12-14T01:32:09.947Z,101147.56
2022-12-14T01:34:41.291Z,101153.84
2022-12-14T01:37:12.665Z,101148.03
2022-12-14T01:39:44.115Z,101138.88
2022-12-14T01:42:18.125Z,101123.47
2022-12-14T01:44:56.427Z,101068.28
2022-12-14T01:47:42.344Z,101144.13
2022-12-14T01:50:26.699Z,101069.78
2022-12-14T01:53:03.334Z,101140.19
2022-12-14T01:55:39.507Z,101130.19
2022-12-14T01:58:17.244Z,101151.63
2022-12-14T02:00:49.159Z,101142.66
2022-12-14T02:03:30.689Z,101124.81
2022-12-14T02:06:11.071Z,101140.59
2022-12-14T02:08:46.111Z,101087.50
2022-12-14T02:11:24.293Z,101139.38
2022-12-14T02:13:55.652Z,101144.78
2022-12-14T02:16:27.047Z,101154.75
2022-12-14T02:18:58.407Z,101149.53
2022-12-14T02:21:38.849Z,101087.28
2022-12-14T02:24:53.032Z,101082.44
2022-12-14T02:27:48.686Z,101156.88
2022-12-14T02:30:24.736Z,101161.91
2022-12-14T02:33:28.241Z,101170.13
2022-12-14T02:35:59.992Z,101168.94
2022-12-14T02:38:47.882Z,101168.44
2022-12-14T02:41:44.034Z,101168.56
2022-12-14T02:44:21.855Z,101168.16
2022-12-14T02:47:04.565Z,101175.22
2022-12-14T02:50:04.280Z,101152.25
2022-12-14T02:53:00.487Z,101158.78
2022-12-14T02:56:11.955Z,101160.59
2022-12-14T02:58:55.149Z,101155.28
2022-12-14T03:01:30.896Z,101071.16
2022-12-14T03:04:03.066Z,101161.97
2022-12-14T03:06:34.631Z,101149.69
2022-12-14T03:09:09.468Z,101157.41
2022-12-14T03:11:53.281Z,101063.91
2022-12-14T03:14:41.378Z,101158.22
2022-12-14T03:17:20.903Z,101157.41
2022-12-14T03:20:15.559Z,101149.06
2022-12-14T03:23:20.086Z,101138.84
2022-12-14T03:26:03.201Z,101072.22
2022-12-14T03:28:46.191Z,101152.84
2022-12-14T03:31:39.871Z,101104.13
2022-12-14T03:34:16.396Z,101150.38
2022-12-14T03:37:02.016Z,101151.63
2022-12-14T03:39:37.823Z,101069.56
2022-12-14T03:42:24.418Z,101139.13
2022-12-14T03:45:28.187Z,101142.06
2022-12-14T03:48:12.028Z,101135.81
2022-12-14T03:51:03.543Z,101069.16
2022-12-14T03:53:37.631Z,101136.66
2022-12-14T03:56:24.536Z,101058.59
2022-12-14T03:59:05.832Z,101131.69
2022-12-14T04:01:57.493Z,101124.19
2022-12-14T04:05:01.568Z,101098.41
2022-12-14T04:07:54.983Z,101115.66
2022-12-14T04:10:59.251Z,101118.41
2022-12-14T04:14:05.503Z,101103.63
2022-12-14T04:17:02.690Z,101039.53
2022-12-14T04:19:48.922Z,101114.84
2022-12-14T04:22:26.805Z,101041.00
2022-12-14T04:25:16.023Z,101106.94
2022-12-14T04:27:56.490Z,101111.72
2022-12-14T04:30:31.303Z,101106.53
2022-12-14T04:33:27.894Z,101112.59
2022-12-14T04:36:03.945Z,101095.53
2022-12-14T04:38:39.612Z,101098.03
2022-12-14T04:41:16.781Z,101033.97
2022-12-14T04:43:50.719Z,100997.78
2022-12-14T04:46:30.127Z,101014.19
2022-12-14T04:49:14.578Z,101078.91
2022-12-14T04:52:03.426Z,101076.84
2022-12-14T04:54:48.303Z,101008.59
2022-12-14T04:57:28.721Z,101064.38
2022-12-14T05:00:03.771Z,101032.78
2022-12-14T05:02:53.521Z,101045.44
2022-12-14T05:05:56.554Z,101046.69
2022-12-14T05:09:11.743Z,100962.47
2022-12-14T05:11:53.593Z,101027.34
2022-12-14T05:14:30.581Z,101027.75
2022-12-14T05:17:08.518Z,101002.78
2022-12-14T05:19:50.534Z,101007.75
2022-12-14T05:22:22.243Z,101006.31
2022-12-14T05:24:53.597Z,101006.94
2022-12-14T05:27:24.934Z,100999.44
2022-12-14T05:29:56.294Z,100980.28
2022-12-14T05:32:29.553Z,100966.16
2022-12-14T05:35:01.009Z,100954.06
2022-12-14T05:37:32.457Z,100960.78
2022-12-14T05:40:03.721Z,100958.44
2022-12-14T05:42:38.225Z,100947.81
2022-12-14T05:45:15.269Z,100951.94
2022-12-14T05:47:47.173Z,100948.81
2022-12-14T05:50:18.834Z,100942.78
2022-12-14T05:52:50.001Z,100937.44
2022-12-14T05:55:21.223Z,100931.53
2022-12-14T05:57:52.575Z,100931.34
2022-12-14T06:00:23.932Z,100924.47
2022-12-14T06:02:57.160Z,100914.28
2022-12-14T06:05:28.566Z,100910.31
2022-12-14T06:08:00.238Z,100887.03
2022-12-14T06:10:31.559Z,100903.19
2022-12-14T06:13:02.925Z,100901.94
2022-12-14T06:15:34.367Z,100895.50
2022-12-14T06:18:05.714Z,100888.22
2022-12-14T06:20:37.268Z,100880.47
2022-12-14T06:23:08.858Z,100884.63
2022-12-14T06:25:40.906Z,100872.31
2022-12-14T06:28:12.241Z,100853.63
2022-12-14T06:30:43.568Z,100854.41
2022-12-14T06:33:15.053Z,100855.06
2022-12-14T06:35:47.755Z,100854.41
2022-12-14T06:38:19.997Z,100835.72
2022-12-14T06:40:51.461Z,100849.81
2022-12-14T06:43:23.022Z,100850.25
2022-12-14T06:45:56.031Z,100831.75
2022-12-14T06:48:27.735Z,100849.56
2022-12-14T06:51:02.956Z,100829.84
2022-12-14T06:53:35.888Z,100842.28
2022-12-14T06:56:14.501Z,100839.34
2022-12-14T06:58:46.768Z,100840.19
2022-12-14T07:01:24.196Z,100780.66
2022-12-14T07:03:58.025Z,100827.25
2022-12-14T07:06:33.774Z,100763.78
2022-12-14T07:09:06.895Z,100826.44
2022-12-14T07:11:39.484Z,100798.56
2022-12-14T07:14:14.567Z,100817.63
2022-12-14T07:16:48.813Z,100779.47
2022-12-14T07:19:20.926Z,100809.69
2022-12-14T07:21:52.388Z,100805.94
2022-12-14T07:24:23.798Z,100801.94
2022-12-14T07:26:55.299Z,100799.25
2022-12-14T07:29:32.624Z,100805.06
2022-12-14T07:32:06.357Z,100802.53
2022-12-14T07:34:37.748Z,100789.41
2022-12-14T07:37:09.379Z,100785.88
2022-12-14T07:39:41.097Z,100790.38
2022-12-14T07:42:12.751Z,100795.78
2022-12-14T07:44:50.886Z,100786.16
2022-12-14T07:47:22.376Z,100780.75
2022-12-14T07:49:53.474Z,100781.19
2022-12-14T07:52:24.720Z,100749.03
2022-12-14T07:54:56.228Z,100775.50
2022-12-14T07:57:27.852Z,100773.16
2022-12-14T07:59:59.478Z,100770.25
2022-12-14T08:02:31.682Z,100767.97
2022-12-14T08:05:05.377Z,100763.91
2022-12-14T08:07:40.699Z,100756.84
2022-12-14T08:10:12.146Z,100760.16
2022-12-14T08:12:43.455Z,100765.13
2022-12-14T08:15:14.846Z,100739.81
2022-12-14T08:17:46.337Z,100758.66
2022-12-14T08:20:17.804Z,100763.41
2022-12-14T08:22:49.261Z,100759.88
2022-12-14T08:25:20.781Z,100762.97
2022-12-14T08:27:52.087Z,100765.41
2022-12-14T08:30:23.513Z,100770.38
2022-12-14T08:32:54.962Z,100759.56
2022-12-14T08:35:26.273Z,100759.84
2022-12-14T08:37:57.695Z,100762.88
2022-12-14T08:40:30.027Z,100766.19
2022-12-14T08:43:01.342Z,100767.38
2022-12-14T08:45:32.876Z,100759.88
2022-12-14T08:48:05.378Z,100747.84
2022-12-14T08:50:37.182Z,100765.25
2022-12-14T08:53:08.667Z,100758.97
2022-12-14T08:55:40.544Z,100763.94
2022-12-14T08:58:12.159Z,100760.19
2022-12-14T09:00:44.884Z,100756.41
2022-12-14T09:03:18.269Z,100758.66
2022-12-14T09:05:49.822Z,100747.91
2022-12-14T09:08:21.272Z,100755.13
2022-12-14T09:10:53.561Z,100758.22
2022-12-14T09:13:25.138Z,100746.03
2022-12-14T09:16:19.940Z,100770.34
2022-12-14T09:18:52.395Z,100763.19
2022-12-14T09:21:24.557Z,100767.78
2022-12-14T09:23:59.539Z,100771.31
2022-12-14T09:26:31.989Z,100766.75
2022-12-14T09:29:03.443Z,100761.38
2022-12-14T09:31:34.852Z,100763.50
2022-12-14T09:34:06.331Z,100767.25
2022-12-14T09:36:38.582Z,100771.31
2022-12-14T09:39:10.394Z,100776.31
2022-12-14T09:42:03.227Z,100779.22
2022-12-14T09:45:10.482Z,100709.28
2022-12-14T09:48:05.702Z,100779.78
2022-12-14T09:50:38.879Z,100775.09
2022-12-14T09:53:16.419Z,100705.53
2022-12-14T09:55:52.125Z,100700.56
2022-12-14T09:58:24.870Z,100774.34
2022-12-14T10:01:33.814Z,100802.19
2022-12-14T10:04:23.870Z,100810.13
2022-12-14T10:07:07.911Z,100727.22
2022-12-14T10:09:39.223Z,100811.97
2022-12-14T10:12:30.967Z,100809.97
2022-12-14T10:15:25.464Z,100811.84
2022-12-14T10:18:02.929Z,100808.44
2022-12-14T10:20:57.324Z,100808.69
2022-12-14T10:23:30.259Z,100802.31
2022-12-14T10:26:12.694Z,100820.06
2022-12-14T10:29:01.395Z,100770.31
2022-12-14T10:31:48.743Z,100816.50
2022-12-14T10:34:26.900Z,100840.66
2022-12-14T10:37:18.390Z,100834.72
2022-12-14T10:40:12.417Z,100840.34
2022-12-14T10:43:13.057Z,100841.56
2022-12-14T10:46:02.096Z,100837.47
2022-12-14T10:48:52.717Z,100833.28
2022-12-14T10:51:35.865Z,100839.03
2022-12-14T10:54:10.467Z,100840.59
2022-12-14T10:56:49.746Z,100840.38
2022-12-14T10:59:29.277Z,100842.44
2022-12-14T11:02:18.417Z,100848.50
2022-12-14T11:04:53.986Z,100852.28
2022-12-14T11:07:41.972Z,100852.34
2022-12-14T11:10:31.207Z,100781.41
2022-12-14T11:13:23.310Z,100853.16
2022-12-14T11:15:54.998Z,100856.81
2022-12-14T11:18:33.873Z,100845.16
2022-12-14T11:21:07.845Z,100850.78
2022-12-14T11:23:43.471Z,100863.84
2022-12-14T11:26:42.910Z,100876.53
2022-12-14T11:29:42.110Z,100878.16
2022-12-14T11:32:29.895Z,100881.03
2022-12-14T11:35:01.985Z,100877.72
2022-12-14T11:37:34.180Z,100875.03
2022-12-14T11:40:08.664Z,100873.06
2022-12-14T11:42:40.293Z,100879.94
2022-12-14T11:45:41.903Z,100891.47
2022-12-14T11:48:16.409Z,100890.78
2022-12-14T11:50:49.666Z,100863.56
2022-12-14T11:53:23.647Z,100891.22
2022-12-14T11:56:01.642Z,100823.59
2022-12-14T11:58:40.987Z,100906.22
2022-12-14T12:01:21.719Z,100906.66
2022-12-14T12:04:02.059Z,100912.94
2022-12-14T12:06:34.258Z,100909.16
2022-12-14T12:09:13.691Z,100914.91
2022-12-14T12:11:48.043Z,100841.78
2022-12-14T12:14:26.090Z,100917.94
2022-12-14T12:16:59.303Z,100829.94
2022-12-14T12:19:36.924Z,100848.19
2022-12-14T12:22:13.918Z,100849.25
2022-12-14T12:25:24.953Z,100923.75
2022-12-14T12:28:05.745Z,100855.94
2022-12-14T12:30:43.189Z,100862.34
2022-12-14T12:33:25.682Z,100924.22
2022-12-14T12:36:01.306Z,100931.28
2022-12-14T12:38:59.584Z,100938.34
2022-12-14T12:41:40.436Z,100884.56
2022-12-14T12:44:40.555Z,100942.94
2022-12-14T12:47:45.834Z,100942.75
2022-12-14T12:50:32.007Z,100947.97
2022-12-14T12:53:15.340Z,100949.59
2022-12-14T12:55:55.403Z,100952.50
2022-12-14T12:58:38.341Z,100958.97
2022-12-14T13:01:48.750Z,100959.22
2022-12-14T13:04:52.869Z,100964.25
2022-12-14T13:07:39.476Z,100971.28
2022-12-14T13:10:28.138Z,100952.81
2022-12-14T13:13:29.964Z,100962.81
2022-12-14T13:16:28.131Z,100970.94
2022-12-14T13:22:30.700Z,100980.44
2022-12-14T13:25:13.612Z,100968.41
2022-12-14T13:28:04.902Z,100976.53
2022-12-14T13:30:58.053Z,100950.16
2022-12-14T13:33:57.869Z,100985.88
2022-12-14T13:37:05.854Z,100978.63
2022-12-14T13:39:40.452Z,100985.81
2022-12-14T13:42:35.795Z,100990.91
2022-12-14T13:45:16.684Z,100909.88
2022-12-14T13:47:57.880Z,100906.56
2022-12-14T13:50:52.908Z,100934.03
2022-12-14T13:53:51.460Z,100971.63
2022-12-14T13:56:32.683Z,100921.19
2022-12-14T13:59:29.126Z,100989.72
2022-12-14T14:02:03.730Z,100961.88
2022-12-14T14:04:37.972Z,100952.97
2022-12-14T14:07:27.597Z,101010.09
2022-12-14T14:10:07.888Z,100986.41
2022-12-14T14:12:43.238Z,101005.94
2022-12-14T14:15:27.566Z,100930.31
2022-12-14T14:18:31.856Z,100983.94
2022-12-14T14:21:15.742Z,101002.59
2022-12-14T14:23:58.852Z,100993.44
2022-12-14T14:26:37.774Z,101005.53
2022-12-14T14:29:28.616Z,101000.19
2022-12-14T14:32:07.421Z,100999.75
2022-12-14T14:34:45.468Z,100991.25
2022-12-14T14:37:22.906Z,100991.91
2022-12-14T14:40:23.796Z,100974.00
2022-12-14T14:43:19.805Z,100899.66
2022-12-14T14:45:56.950Z,100853.53
2022-12-14T14:49:00.556Z,100995.28
2022-12-14T14:51:40.530Z,100979.88
2022-12-14T14:57:36.990Z,100995.50
2022-12-14T15:00:12.420Z,100992.78
2022-12-14T15:02:45.198Z,100997.78
2022-12-14T15:08:33.830Z,100987.84
2022-12-14T15:11:13.509Z,100948.75
2022-12-14T15:14:28.875Z,100994.88
2022-12-14T15:17:00.589Z,100986.19
2022-12-14T15:19:37.505Z,100987.41
2022-12-14T15:22:14.539Z,100994.47
2022-12-14T15:24:51.358Z,100992.59
2022-12-14T15:27:28.860Z,100976.81
2022-12-14T15:30:25.726Z,100929.63
2022-12-14T15:33:10.538Z,100986.56
2022-12-14T15:35:49.477Z,100998.22
2022-12-14T15:38:29.755Z,100937.88
2022-12-14T15:41:05.370Z,101000.28
2022-12-14T15:43:36.985Z,100995.50
2022-12-14T15:46:19.031Z,100971.59
2022-12-14T15:49:01.454Z,100989.06
2022-12-14T15:51:43.089Z,100937.88
2022-12-14T15:54:20.361Z,100927.06
2022-12-14T15:56:55.864Z,100983.66
2022-12-14T15:59:38.432Z,100987.38
2022-12-14T16:02:32.083Z,100984.00
2022-12-14T16:05:05.454Z,100984.69
2022-12-14T16:07:43.548Z,100993.63
2022-12-14T16:10:30.678Z,100983.25
2022-12-14T16:13:17.650Z,100978.03
2022-12-14T16:15:50.120Z,100980.56
2022-12-14T16:18:22.801Z,100974.50
2022-12-14T16:21:02.081Z,100977.84
2022-12-14T16:23:43.440Z,100975.75
2022-12-14T16:26:17.240Z,100980.97
2022-12-14T16:28:49.536Z,100983.22
2022-12-14T16:31:27.618Z,100980.34
2022-12-14T16:34:21.757Z,100957.44
2022-12-14T16:37:32.127Z,100956.63
2022-12-14T16:39:54.680Z,100942.88
2022-12-14T16:42:28.491Z,100977.81
2022-12-14T16:45:00.249Z,100973.22
2022-12-14T16:47:37.419Z,100972.84
2022-12-14T16:53:28.688Z,100956.34
2022-12-14T16:56:23.618Z,100970.50
2022-12-14T16:59:01.851Z,100955.75
2022-12-14T17:01:48.735Z,100874.63
2022-12-14T17:04:23.390Z,100866.13
2022-12-14T17:06:58.204Z,100945.13
2022-12-14T17:09:31.785Z,100874.25
2022-12-14T17:12:12.939Z,100864.66
2022-12-14T17:14:49.678Z,100932.88
2022-12-14T17:17:26.998Z,100933.06
2022-12-14T17:19:59.200Z,100931.41
2022-12-14T17:22:34.920Z,100912.06
2022-12-14T17:25:07.241Z,100944.50
2022-12-14T17:27:38.586Z,100942.81
2022-12-14T17:30:16.782Z,100937.44
2022-12-14T17:32:49.401Z,100933.06
2022-12-14T17:35:25.581Z,100857.16
2022-12-14T17:37:57.321Z,100922.47
2022-12-14T17:40:28.910Z,100928.50
2022-12-14T17:43:01.022Z,100936.59
2022-12-14T17:45:32.924Z,100914.31
2022-12-14T17:48:04.504Z,100921.22
2022-12-14T17:50:36.693Z,100918.31
2022-12-14T17:53:08.033Z,100875.88
2022-12-14T17:55:39.389Z,100870.84
2022-12-14T17:58:13.143Z,100853.81
2022-12-14T18:01:04.264Z,100900.41
2022-12-14T18:03:40.729Z,100909.75
2022-12-14T18:06:17.757Z,100859.00
2022-12-14T18:08:52.548Z,100894.19
2022-12-14T18:11:28.378Z,100866.31
2022-12-14T18:14:00.188Z,100897.31
2022-12-14T18:16:31.608Z,100899.16
2022-12-14T18:19:03.129Z,100901.22
2022-12-14T18:21:34.595Z,100909.50
2022-12-14T18:24:11.398Z,100909.81
2022-12-14T18:26:43.377Z,100899.91
2022-12-14T18:29:16.047Z,100899.94
2022-12-14T18:31:52.276Z,100904.50
2022-12-14T18:34:29.334Z,100896.63
2022-12-14T18:37:01.733Z,100899.50
2022-12-14T18:39:37.711Z,100897.88
2022-12-14T18:42:16.614Z,100872.94
2022-12-14T18:44:55.715Z,100888.31
2022-12-14T18:47:41.930Z,100862.94
2022-12-14T18:50:17.777Z,100798.50
2022-12-14T18:52:50.203Z,100871.66
2022-12-14T18:55:23.389Z,100859.53
2022-12-14T18:58:01.916Z,100865.03
2022-12-14T19:00:51.130Z,100828.47
2022-12-14T19:03:25.753Z,100845.28
2022-12-14T19:06:42.922Z,100776.88
2022-12-14T19:09:06.440Z,100850.69
2022-12-14T19:11:46.014Z,100848.84
2022-12-14T19:14:23.786Z,100840.72
2022-12-14T19:16:57.252Z,100808.94
2022-12-14T19:19:41.093Z,100834.31
2022-12-14T19:22:31.327Z,100828.88
2022-12-14T19:25:04.207Z,100820.19
2022-12-14T19:28:20.020Z,100817.91
2022-12-14T19:30:36.387Z,100806.06
2022-12-14T19:33:12.522Z,100808.13
2022-12-14T19:35:57.947Z,100811.88
2022-12-14T19:38:31.000Z,100811.03
2022-12-14T19:41:12.270Z,100742.44
2022-12-14T19:43:45.644Z,100806.25
2022-12-14T19:46:22.643Z,100786.97
2022-12-14T19:48:55.093Z,100791.53
2022-12-14T19:51:38.555Z,100798.16
2022-12-14T19:54:15.152Z,100792.13
2022-12-14T19:56:51.953Z,100787.78
2022-12-14T19:59:24.897Z,100788.59
2022-12-14T20:02:00.877Z,100791.13
2022-12-14T20:04:36.998Z,100789.84
2022-12-14T20:07:10.033Z,100787.78
2022-12-14T20:09:42.230Z,100794.22
2022-12-14T20:12:13.571Z,100790.25
2022-12-14T20:14:45.808Z,100784.25
2022-12-14T20:17:21.037Z,100778.63
2022-12-14T20:19:52.392Z,100735.38
2022-12-14T20:22:23.727Z,100783.59
2022-12-14T20:24:55.090Z,100785.25
2022-12-14T20:27:26.882Z,100770.69
2022-12-14T20:29:58.746Z,100776.94
2022-12-14T20:32:31.172Z,100783.53
2022-12-14T20:35:02.538Z,100785.22
2022-12-14T20:37:34.400Z,100766.31
2022-12-14T20:40:06.320Z,100774.00
2022-12-14T20:42:37.696Z,100780.22
2022-12-14T20:45:09.646Z,100774.81
2022-12-14T20:47:41.650Z,100786.03
2022-12-14T20:50:13.042Z,100785.56
2022-12-14T20:52:44.412Z,100776.88
2022-12-14T20:55:15.894Z,100779.78
2022-12-14T20:57:47.271Z,100785.97
2022-12-14T21:00:19.085Z,100791.38
2022-12-14T21:02:50.536Z,100786.78
2022-12-14T21:05:21.990Z,100787.63
2022-12-14T21:07:53.588Z,100785.56
2022-12-14T21:10:25.057Z,100776.59
2022-12-14T21:12:56.833Z,100784.09
2022-12-14T21:15:28.543Z,100789.25
2022-12-14T21:18:00.881Z,100785.97
2022-12-14T21:20:32.264Z,100790.72
2022-12-14T21:23:03.595Z,100788.25
2022-12-14T21:25:35.066Z,100786.56
2022-12-14T21:28:07.000Z,100771.38
2022-12-14T21:30:38.341Z,100785.91
2022-12-14T21:33:09.646Z,100789.25
2022-12-14T21:35:42.704Z,100640.25
2022-12-14T21:38:14.665Z,100780.91
2022-12-14T21:41:12.003Z,100789.22
2022-12-14T21:43:43.676Z,100786.72
2022-12-14T21:46:17.330Z,100794.16
2022-12-14T21:48:48.825Z,100801.66
2022-12-14T21:51:21.493Z,100799.19
2022-12-14T21:54:02.158Z,100800.59
2022-12-14T21:56:53.794Z,100790.81
2022-12-14T21:59:28.794Z,100814.06
2022-12-14T22:02:02.480Z,100804.94
2022-12-14T22:04:39.550Z,100794.56
2022-12-14T22:07:11.791Z,100807.44
2022-12-14T22:09:43.915Z,100805.97
2022-12-14T22:12:21.567Z,100812.34
2022-12-14T22:14:53.021Z,100815.25
2022-12-14T22:17:24.873Z,100825.59
2022-12-14T22:19:56.740Z,100821.22
2022-12-14T22:22:28.683Z,100819.38
2022-12-14T22:25:01.193Z,100818.09
2022-12-14T22:27:32.961Z,100823.91
2022-12-14T22:30:06.895Z,100828.25
2022-12-14T22:32:38.236Z,100833.44
2022-12-14T22:35:11.047Z,100825.94
2022-12-14T22:37:42.788Z,100827.59
2022-12-14T22:40:15.638Z,100827.38
2022-12-14T22:42:47.188Z,100823.56
2022-12-14T22:45:18.632Z,100841.66
2022-12-14T22:47:50.099Z,100821.47
2022-12-14T22:50:22.973Z,100824.16
2022-12-14T22:52:54.269Z,100848.63
2022-12-14T22:55:25.772Z,100847.81
2022-12-14T22:57:57.648Z,100845.31
2022-12-14T23:00:29.127Z,100855.28
2022-12-14T23:03:00.706Z,100837.41
2022-12-14T23:05:32.386Z,100857.19
2022-12-14T23:08:03.663Z,100860.78
2022-12-14T23:10:53.917Z,100849.34
2022-12-14T23:13:43.499Z,100872.06
2022-12-14T23:16:33.294Z,100875.63
2022-12-14T23:19:23.147Z,100873.00
2022-12-14T23:22:12.508Z,100882.97
2022-12-14T23:25:01.965Z,100884.03
2022-12-14T23:27:51.439Z,100876.78
2022-12-14T23:30:40.957Z,100881.38
2022-12-14T23:33:30.780Z,100886.81
2022-12-14T23:36:21.876Z,100830.66
2022-12-14T23:39:12.588Z,100896.84
2022-12-14T23:42:02.117Z,100899.59
2022-12-14T23:44:52.174Z,100900.44
2022-12-14T23:47:41.459Z,100909.59
2022-12-14T23:50:31.036Z,100892.34
2022-12-14T23:53:28.673Z,100908.38
2022-12-14T23:56:19.557Z,100904.84
2022-12-14T23:59:13.338Z,100913.19
